X  Luk Metar data     KCLT Charlotte Douglas International Airport
Temperatur
55°F Temperatur
45°F Duggpunkt
67% Fugtighed



Vind
7 MPT
11 KM/T
3 M/S
6 KNOB



20°
NNØ
Nuværende forhold

Delvis skyet Delvis skyet
Tryk 1015.58 (hPa) - 29.99 (inHg)
Sigt 10 (mil) - 16.1 (km)
Lufthavn
Lufthavnskode KCLT

Lokation: Charlotte Douglas International Airport
Afstand: 14 (mi)

Metar:
KCLT 211052Z 02006KT 10SM FEW040 BKN065 OVC100 13/07 A2999 RMK AO2 RAE21 SLP165 P0000 T01280067

Tid: 21-04-2024 6:52 am EDT